Time;durP1;ratioP1;P1;durP2;ratioP2;P2;SDS_P1;SDS_P2;PMS_P1;PMS_P2;Temp;Humidity;BMP_temperature;BMP_pressure;BME280_temperature;BME280_humidity;BME280_pressure;Samples;Min_cycle;Max_cycle;Signal;HPM_P1;HPM_P2
2022/11/09 05:04:14;;;;;;;43.33;40.37;;;10.90;99.90;;;;;;5886251;23;20494;-72
2022/11/09 05:06:40;;;;;;;43.40;40.30;;;11.00;99.90;;;;;;4913173;29;20454;-72
2022/11/09 05:09:08;;;;;;;38.53;35.80;;;11.00;99.90;;;;;;4912690;29;20454;-73
2022/11/09 05:11:35;;;;;;;39.10;36.60;;;11.00;99.90;;;;;;4911259;29;20965;-73
2022/11/09 05:14:03;;;;;;;42.07;39.27;;;11.00;99.90;;;;;;4912744;29;20721;-71
2022/11/09 05:16:30;;;;;;;42.20;39.30;;;11.00;99.90;;;;;;4912549;29;20455;-72
2022/11/09 05:18:57;;;;;;;43.47;40.33;;;11.10;99.90;;;;;;4911009;29;20454;-72
2022/11/09 05:21:25;;;;;;;43.03;40.30;;;11.10;99.90;;;;;;4910916;29;20476;-72
2022/11/09 05:24:00;;;;;;;44.57;41.43;;;11.00;99.90;;;;;;4912902;29;20481;-74
2022/11/09 05:26:28;;;;;;;45.80;42.50;;;11.10;99.90;;;;;;4913774;29;20454;-73
2022/11/09 05:28:56;;;;;;;45.77;42.30;;;11.10;99.90;;;;;;4911809;29;20450;-73
2022/11/09 05:31:23;;;;;;;45.00;41.37;;;10.90;99.90;;;;;;4912917;29;20458;-74
2022/11/09 05:33:51;;;;;;;42.90;40.00;;;10.90;99.90;;;;;;4912651;29;20820;-74
2022/11/09 05:36:18;;;;;;;41.97;39.37;;;10.80;99.90;;;;;;4912834;29;20485;-73
2022/11/09 05:38:47;;;;;;;40.30;37.60;;;10.80;99.90;;;;;;4913221;29;20820;-73
2022/11/09 05:41:13;;;;;;;39.37;36.87;;;10.90;99.90;;;;;;4916576;29;20484;-73
2022/11/09 05:43:40;;;;;;;39.57;37.03;;;10.90;99.90;;;;;;4916632;29;20504;-75
2022/11/09 05:46:07;;;;;;;38.70;36.33;;;10.90;99.90;;;;;;4916310;29;20531;-75
2022/11/09 05:48:34;;;;;;;39.97;37.57;;;11.00;99.90;;;;;;4916396;29;20446;-75
2022/11/09 05:51:02;;;;;;;38.83;36.50;;;11.00;99.90;;;;;;4916229;29;20461;-75
2022/11/09 05:53:29;;;;;;;39.37;36.67;;;11.00;99.90;;;;;;4916339;29;20450;-75
2022/11/09 05:56:02;;;;;;;41.77;39.00;;;11.00;99.90;;;;;;4916524;29;20450;-76
2022/11/09 05:58:29;;;;;;;42.13;39.43;;;11.00;99.90;;;;;;4916213;29;20454;-75
2022/11/09 06:00:56;;;;;;;41.73;39.00;;;11.00;99.90;;;;;;4916366;29;20458;-76
2022/11/09 06:03:22;;;;;;;42.60;39.40;;;10.90;99.90;;;;;;4915772;29;20478;-75
2022/11/09 06:05:49;;;;;;;43.77;40.73;;;10.90;99.90;;;;;;4915881;29;20482;-76
2022/11/09 06:08:16;;;;;;;44.67;41.40;;;10.90;99.90;;;;;;4915833;29;20809;-76
2022/11/09 06:10:43;;;;;;;43.83;40.80;;;10.90;99.90;;;;;;4916204;29;20470;-76
2022/11/09 06:13:11;;;;;;;44.77;41.83;;;10.90;99.90;;;;;;4916171;29;20462;-76
2022/11/09 06:15:38;;;;;;;43.97;40.67;;;10.90;99.90;;;;;;4916033;29;20450;-76
2022/11/09 06:18:05;;;;;;;43.83;41.13;;;10.90;99.90;;;;;;4915598;29;20724;-75
2022/11/09 06:20:32;;;;;;;42.67;39.70;;;10.90;99.90;;;;;;4915518;29;20461;-75
2022/11/09 06:23:00;;;;;;;42.40;39.07;;;10.90;99.90;;;;;;4915816;29;21004;-75
2022/11/09 06:25:28;;;;;;;42.23;39.40;;;10.90;99.90;;;;;;4915759;29;20486;-75
2022/11/09 06:27:56;;;;;;;43.07;40.03;;;10.90;99.90;;;;;;4915757;29;20458;-75
2022/11/09 06:30:24;;;;;;;44.27;41.17;;;11.00;99.90;;;;;;4915522;29;20461;-75
2022/11/09 06:32:51;;;;;;;42.30;39.30;;;11.00;99.90;;;;;;4915555;29;20450;-75
2022/11/09 06:35:17;;;;;;;45.00;41.90;;;11.00;99.90;;;;;;4915314;29;20455;-75
2022/11/09 06:37:44;;;;;;;45.20;41.73;;;11.10;99.90;;;;;;4915585;29;20452;-76
2022/11/09 06:40:12;;;;;;;43.73;40.87;;;11.10;99.90;;;;;;4915510;29;20463;-75
2022/11/09 06:42:39;;;;;;;43.93;40.93;;;11.10;99.90;;;;;;4915393;29;20461;-74
2022/11/09 06:45:07;;;;;;;41.37;38.70;;;11.20;99.90;;;;;;4915164;29;20490;-74
2022/11/09 06:47:35;;;;;;;41.07;38.37;;;11.20;99.90;;;;;;4915242;29;20450;-75
2022/11/09 06:50:02;;;;;;;42.93;39.93;;;11.20;99.90;;;;;;4915004;29;20465;-75
2022/11/09 06:52:28;;;;;;;42.10;39.40;;;11.20;99.90;;;;;;4914639;29;21042;-75
2022/11/09 06:54:55;;;;;;;42.20;39.40;;;11.20;99.90;;;;;;4915377;29;20450;-74
2022/11/09 06:57:22;;;;;;;40.73;38.03;;;11.30;99.90;;;;;;4915313;29;20474;-74
2022/11/09 06:59:49;;;;;;;44.07;40.67;;;11.30;99.90;;;;;;4914909;29;20454;-73
2022/11/09 07:02:17;;;;;;;42.20;39.43;;;11.30;99.90;;;;;;4915011;29;20454;-74
2022/11/09 07:04:45;;;;;;;42.00;39.30;;;11.30;99.90;;;;;;4914735;29;20578;-74
2022/11/09 07:07:12;;;;;;;39.10;36.60;;;11.30;99.90;;;;;;4915132;29;20450;-75
2022/11/09 07:09:38;;;;;;;40.37;37.87;;;11.30;99.90;;;;;;4915144;29;20450;-75
2022/11/09 07:12:06;;;;;;;42.10;38.97;;;11.30;99.90;;;;;;4914852;29;20455;-76
2022/11/09 07:14:32;;;;;;;41.90;39.00;;;11.30;99.90;;;;;;4914799;29;20819;-73
2022/11/09 07:16:59;;;;;;;42.10;39.30;;;11.40;99.90;;;;;;4914693;29;20450;-74
2022/11/09 07:19:26;;;;;;;42.37;39.40;;;11.40;99.90;;;;;;4914914;29;20948;-74
2022/11/09 07:21:54;;;;;;;42.30;39.33;;;11.50;99.90;;;;;;4914672;29;20450;-75
2022/11/09 07:24:21;;;;;;;40.87;38.17;;;11.50;99.90;;;;;;4914450;29;20493;-75
2022/11/09 07:26:48;;;;;;;43.97;41.03;;;11.50;99.90;;;;;;4914553;29;20695;-76
2022/11/09 07:29:15;;;;;;;43.10;40.10;;;11.60;99.90;;;;;;4914353;29;20451;-74
2022/11/09 07:31:41;;;;;;;45.53;42.03;;;11.70;99.90;;;;;;4914430;29;20458;-73
2022/11/09 07:34:08;;;;;;;46.67;43.30;;;11.70;99.90;;;;;;4914302;29;20457;-73
2022/11/09 07:36:35;;;;;;;46.70;43.20;;;11.80;99.90;;;;;;4914235;29;20462;-73
2022/11/09 07:39:04;;;;;;;47.20;43.90;;;11.90;99.90;;;;;;4914334;29;20983;-73
2022/11/09 07:41:30;;;;;;;50.53;46.43;;;12.10;99.90;;;;;;4914216;29;20505;-73
2022/11/09 07:43:58;;;;;;;48.30;44.57;;;12.20;99.90;;;;;;4914336;29;20469;-73
2022/11/09 07:46:24;;;;;;;45.57;42.47;;;12.20;99.90;;;;;;4914218;29;20450;-74
2022/11/09 07:48:51;;;;;;;45.43;42.23;;;12.10;99.90;;;;;;4914110;29;20466;-74
2022/11/09 07:51:18;;;;;;;44.37;41.07;;;12.00;99.90;;;;;;4914085;29;20572;-75
2022/11/09 07:53:45;;;;;;;43.33;40.53;;;12.10;99.90;;;;;;4914293;29;20454;-75
2022/11/09 07:56:13;;;;;;;41.50;38.77;;;12.10;99.90;;;;;;4914263;29;20463;-74
2022/11/09 07:58:40;;;;;;;41.97;39.17;;;12.20;99.90;;;;;;4914319;29;20450;-74
2022/11/09 08:01:08;;;;;;;41.43;38.63;;;12.30;99.90;;;;;;4913884;29;20455;-74
2022/11/09 08:03:35;;;;;;;41.47;38.47;;;12.40;99.90;;;;;;4913552;29;20778;-75
2022/11/09 08:06:01;;;;;;;42.10;39.50;;;12.40;99.90;;;;;;4913466;29;20501;-75
2022/11/09 08:08:28;;;;;;;42.00;39.30;;;12.60;99.90;;;;;;4914143;29;20473;-75
2022/11/09 08:10:57;;;;;;;41.20;38.60;;;12.50;99.90;;;;;;4914624;29;20476;-75
2022/11/09 08:13:26;;;;;;;39.10;36.80;;;12.50;99.90;;;;;;4914245;29;20458;-74
2022/11/09 08:15:52;;;;;;;38.63;36.23;;;12.50;99.90;;;;;;4913758;29;20552;-73
2022/11/09 08:18:21;;;;;;;42.60;39.33;;;12.50;99.90;;;;;;4913684;29;20549;-73
2022/11/09 08:20:48;;;;;;;39.83;37.33;;;12.40;99.90;;;;;;4913595;29;20450;-73
2022/11/09 08:23:17;;;;;;;42.90;39.83;;;12.40;99.90;;;;;;4913648;29;20497;-73
2022/11/09 08:25:44;;;;;;;41.53;38.53;;;12.40;99.90;;;;;;4913620;29;20493;-73
2022/11/09 08:28:11;;;;;;;40.70;37.90;;;12.40;99.90;;;;;;4913667;29;20457;-75
2022/11/09 08:30:40;;;;;;;40.53;38.03;;;12.50;99.90;;;;;;4913089;29;20828;-76
2022/11/09 08:33:07;;;;;;;43.40;40.10;;;12.50;99.90;;;;;;4913303;29;20459;-77
2022/11/09 08:35:34;;;;;;;46.03;42.00;;;12.60;99.90;;;;;;4913313;29;20451;-74
2022/11/09 08:38:02;;;;;;;45.10;41.80;;;12.60;99.90;;;;;;4913420;29;20450;-74
2022/11/09 08:40:29;;;;;;;40.10;37.50;;;12.60;99.90;;;;;;4913263;29;20546;-74
2022/11/09 08:43:01;;;;;;;36.97;34.67;;;12.70;99.90;;;;;;4913342;29;20462;-75
2022/11/09 08:45:28;;;;;;;37.73;35.47;;;12.70;99.90;;;;;;4913550;29;20490;-75
2022/11/09 08:47:59;;;;;;;36.67;34.57;;;12.70;99.90;;;;;;4912169;29;20446;-75
2022/11/09 08:50:26;;;;;;;39.73;37.33;;;12.70;99.90;;;;;;4912691;29;20454;-74
2022/11/09 08:52:53;;;;;;;36.20;34.00;;;12.70;99.90;;;;;;4912385;29;20462;-72
2022/11/09 08:55:21;;;;;;;36.67;34.27;;;12.70;99.90;;;;;;4912891;29;20450;-74
2022/11/09 08:57:48;;;;;;;36.83;34.73;;;12.70;99.90;;;;;;4913041;29;20480;-73
2022/11/09 09:00:15;;;;;;;37.33;35.27;;;12.70;99.90;;;;;;4912975;29;20450;-74
2022/11/09 09:02:42;;;;;;;35.20;33.10;;;12.70;99.90;;;;;;4912989;29;20479;-74
2022/11/09 09:05:10;;;;;;;34.57;32.63;;;12.70;99.90;;;;;;4912708;29;20498;-74
2022/11/09 09:07:37;;;;;;;35.17;33.13;;;12.70;99.90;;;;;;4912732;29;20498;-74
2022/11/09 09:10:05;;;;;;;35.37;33.37;;;12.70;99.90;;;;;;4912865;29;20454;-74
2022/11/09 09:12:32;;;;;;;36.93;34.73;;;12.80;99.90;;;;;;4911104;29;20984;-73
2022/11/09 09:14:59;;;;;;;36.60;34.20;;;12.80;99.90;;;;;;4900842;29;20455;-73
2022/11/09 09:17:26;;;;;;;37.30;35.10;;;12.80;99.90;;;;;;4907620;29;20831;-74
2022/11/09 09:19:52;;;;;;;36.07;34.07;;;12.80;99.90;;;;;;4913775;29;20458;-74
2022/11/09 09:22:21;;;;;;;34.63;32.43;;;12.80;99.90;;;;;;4916260;29;20472;-75
2022/11/09 09:24:47;;;;;;;34.93;33.03;;;12.80;99.90;;;;;;4914685;29;20482;-75
2022/11/09 09:27:14;;;;;;;35.17;33.20;;;12.90;99.90;;;;;;4905348;29;20446;-74
2022/11/09 09:29:41;;;;;;;35.50;33.60;;;12.90;99.90;;;;;;4911287;29;20451;-72
2022/11/09 09:32:07;;;;;;;39.00;36.17;;;12.90;99.90;;;;;;4896942;29;20454;-73
2022/11/09 09:34:34;;;;;;;40.17;37.50;;;13.00;99.90;;;;;;4906562;29;20438;-73
2022/11/09 09:37:01;;;;;;;39.87;37.37;;;13.10;99.90;;;;;;4916069;29;20454;-73
2022/11/09 09:39:29;;;;;;;39.90;37.60;;;13.20;99.90;;;;;;4910520;29;20469;-73
2022/11/09 09:41:58;;;;;;;37.33;35.10;;;13.10;99.90;;;;;;4899875;29;20447;-73
2022/11/09 09:44:31;;;;;;;36.60;34.40;;;13.20;99.90;;;;;;4897289;29;20462;-73
2022/11/09 09:47:07;;;;;;;35.50;33.40;;;13.10;99.90;;;;;;4903112;29;20450;-73
2022/11/09 09:49:37;;;;;;;33.67;31.83;;;13.20;99.90;;;;;;4915836;29;21152;-73
2022/11/09 09:52:11;;;;;;;32.00;30.10;;;13.20;99.90;;;;;;4910143;29;20849;-74
2022/11/09 09:54:43;;;;;;;32.23;30.33;;;13.30;99.90;;;;;;4911897;29;20470;-74
2022/11/09 09:57:17;;;;;;;29.23;27.73;;;13.30;99.90;;;;;;4913943;29;20450;-73
2022/11/09 09:59:48;;;;;;;27.33;25.83;;;13.30;99.90;;;;;;4913753;29;20458;-74
2022/11/09 10:02:28;;;;;;;25.07;23.87;;;13.40;99.90;;;;;;4915664;29;20821;-76
2022/11/09 10:04:57;;;;;;;24.70;23.60;;;13.50;99.90;;;;;;4912985;29;20497;-75
2022/11/09 10:07:29;;;;;;;25.53;24.00;;;13.50;99.90;;;;;;4915308;29;20825;-75
2022/11/09 10:10:32;;;;;;;22.40;21.40;;;13.60;99.90;;;;;;4915877;29;20454;-74
2022/11/09 10:13:21;;;;;;;20.63;19.73;;;13.70;99.90;;;;;;4870429;29;20488;-74
2022/11/09 10:15:52;;;;;;;19.10;18.30;;;13.70;99.90;;;;;;4914930;29;20824;-75
2022/11/09 10:18:33;;;;;;;17.00;16.30;;;13.90;99.90;;;;;;4913595;29;20882;-76
2022/11/09 10:21:11;;;;;;;16.63;15.80;;;13.90;99.90;;;;;;4914927;29;20822;-75
2022/11/09 10:23:48;;;;;;;16.13;15.43;;;14.00;99.90;;;;;;4915042;29;20545;-74
2022/11/09 10:26:21;;;;;;;16.63;15.93;;;14.10;99.90;;;;;;4913881;29;20509;-76
2022/11/09 10:28:55;;;;;;;18.03;17.23;;;14.20;99.90;;;;;;4915062;29;21165;-76
2022/11/09 10:31:23;;;;;;;15.77;15.17;;;14.40;99.90;;;;;;4931088;29;20457;-75
2022/11/09 10:33:55;;;;;;;15.70;15.00;;;14.60;99.90;;;;;;4933986;29;20771;-76
2022/11/09 10:36:28;;;;;;;15.20;14.60;;;14.70;99.90;;;;;;4934159;29;20460;-76
2022/11/09 10:38:58;;;;;;;14.80;14.23;;;15.00;99.90;;;;;;4934323;29;20460;-76
2022/11/09 10:41:31;;;;;;;14.80;14.10;;;15.30;99.90;;;;;;4933782;29;20450;-76
2022/11/09 10:43:58;;;;;;;14.07;13.47;;;15.30;99.90;;;;;;4933970;29;20463;-76
2022/11/09 10:46:25;;;;;;;13.90;13.30;;;15.50;99.90;;;;;;4934051;29;20493;-76
2022/11/09 10:48:54;;;;;;;13.93;13.40;;;15.70;99.90;;;;;;4933511;29;20464;-76
2022/11/09 10:51:32;;;;;;;14.40;13.80;;;16.00;99.90;;;;;;4933642;29;20464;-77
2022/11/09 10:54:18;;;;;;;14.20;13.60;;;16.00;99.90;;;;;;4933784;29;20814;-77
2022/11/09 10:56:49;;;;;;;15.30;14.70;;;16.00;99.90;;;;;;4933935;29;20815;-78
2022/11/09 10:59:37;;;;;;;15.20;14.60;;;16.00;99.90;;;;;;4931810;29;20449;-78
2022/11/09 11:02:41;;;;;;;14.80;14.00;;;16.00;99.90;;;;;;4933630;29;20653;-79
2022/11/09 11:05:41;;;;;;;14.30;13.80;;;15.90;99.90;;;;;;4933826;29;20500;-76
2022/11/09 11:08:28;;;;;;;14.93;14.23;;;15.90;99.90;;;;;;4856910;29;20485;-78
2022/11/09 11:11:21;;;;;;;14.23;13.73;;;16.00;99.90;;;;;;4828792;29;20442;-80
2022/11/09 11:13:50;;;;;;;15.20;14.60;;;16.00;99.90;;;;;;4884207;29;20657;-78
2022/11/09 11:16:32;;;;;;;15.67;15.07;;;16.00;99.90;;;;;;4895760;29;20451;-80
2022/11/09 11:18:59;;;;;;;14.53;13.60;;;16.10;99.90;;;;;;4914784;29;20442;-80
2022/11/09 11:21:27;;;;;;;15.20;14.70;;;16.30;99.90;;;;;;4915666;29;20825;-80
2022/11/09 11:24:14;;;;;;;16.03;15.30;;;16.50;99.90;;;;;;4914953;29;20529;-80
2022/11/09 11:26:49;;;;;;;14.90;14.30;;;16.60;99.90;;;;;;4903394;29;20831;-80
2022/11/09 11:29:35;;;;;;;15.00;14.30;;;16.70;99.90;;;;;;4895911;29;20459;-81
2022/11/09 11:32:02;;;;;;;15.30;14.70;;;16.70;99.90;;;;;;4899331;29;20469;-81
2022/11/09 11:34:28;;;;;;;15.10;14.40;;;16.90;99.90;;;;;;4906644;29;20454;-81
2022/11/09 11:37:08;;;;;;;15.20;14.50;;;16.80;99.90;;;;;;4903405;29;20447;-81
2022/11/09 11:39:46;;;;;;;15.13;14.23;;;16.80;99.90;;;;;;4896328;29;20451;-82
2022/11/09 11:42:27;;;;;;;15.37;14.57;;;16.80;99.90;;;;;;4896465;29;20467;-83
2022/11/09 11:45:11;;;;;;;16.27;15.57;;;16.80;99.90;;;;;;4894584;29;20461;-82
2022/11/09 11:47:48;;;;;;;15.73;15.03;;;17.00;99.90;;;;;;4895610;29;20489;-83
2022/11/09 11:50:32;;;;;;;14.77;14.20;;;16.90;99.90;;;;;;4894839;29;20470;-83
2022/11/09 11:53:22;;;;;;;16.07;15.30;;;16.90;99.90;;;;;;4894173;29;20451;-84
2022/11/09 11:56:12;;;;;;;16.33;15.63;;;16.80;99.90;;;;;;4894951;29;20744;-85
2022/11/09 11:58:55;;;;;;;16.57;15.87;;;16.70;99.90;;;;;;4894798;29;20459;-84
2022/11/09 12:01:38;;;;;;;15.40;14.80;;;16.60;99.90;;;;;;4894901;29;20460;-83
2022/11/09 12:04:20;;;;;;;15.47;14.87;;;16.60;99.90;;;;;;4911006;29;20474;-83
2022/11/09 12:07:00;;;;;;;16.80;16.00;;;16.50;99.90;;;;;;4913286;29;20501;-83
2022/11/09 12:09:59;;;;;;;17.10;16.27;;;16.60;99.90;;;;;;4913394;29;20937;-84
2022/11/09 12:12:38;;;;;;;15.67;14.77;;;16.50;99.90;;;;;;4907044;29;20461;-84
2022/11/09 12:15:28;;;;;;;15.87;14.97;;;16.60;99.90;;;;;;4913566;29;20821;-84
2022/11/09 12:18:03;;;;;;;15.30;14.63;;;16.60;99.90;;;;;;4913638;29;20459;-85
2022/11/09 12:20:36;;;;;;;18.60;17.60;;;16.70;99.90;;;;;;4913625;29;20457;-85
2022/11/09 12:23:32;;;;;;;15.40;14.70;;;16.80;99.90;;;;;;4913584;29;20457;-85
2022/11/09 12:26:08;;;;;;;15.77;14.90;;;16.90;99.90;;;;;;4913437;29;20585;-85
2022/11/09 12:28:50;;;;;;;15.23;14.43;;;17.00;99.90;;;;;;4913254;29;20454;-85
2022/11/09 12:31:27;;;;;;;14.90;14.30;;;17.00;99.90;;;;;;4913336;29;20457;-86
2022/11/09 12:33:59;;;;;;;14.93;14.23;;;17.10;99.90;;;;;;4912214;29;20454;-85
2022/11/09 12:36:34;;;;;;;15.83;14.93;;;17.00;99.90;;;;;;4913509;29;20470;-85
2022/11/09 12:39:07;;;;;;;16.03;15.33;;;17.00;99.90;;;;;;4913209;29;20461;-86
2022/11/09 12:41:37;;;;;;;14.17;13.47;;;17.00;99.90;;;;;;4913175;29;20466;-85
2022/11/09 12:44:11;;;;;;;14.63;13.93;;;17.00;99.90;;;;;;4913206;29;20625;-86
2022/11/09 12:46:42;;;;;;;14.80;14.10;;;17.00;99.90;;;;;;4913180;29;20492;-85
2022/11/09 12:49:28;;;;;;;15.07;14.37;;;17.00;99.90;;;;;;4912487;29;20450;-85
2022/11/09 12:51:55;;;;;;;16.37;15.10;;;17.10;99.90;;;;;;4913772;29;20458;-87
2022/11/09 12:54:24;;;;;;;15.10;14.40;;;17.10;99.90;;;;;;4913984;29;20458;-88
2022/11/09 12:56:55;;;;;;;16.40;15.30;;;17.30;99.90;;;;;;4914399;29;20469;-87
2022/11/09 12:59:34;;;;;;;15.17;14.47;;;17.40;99.90;;;;;;4913234;29;20454;-87
2022/11/09 13:02:02;;;;;;;14.00;13.40;;;17.40;99.90;;;;;;4913664;29;20454;-86
2022/11/09 13:04:31;;;;;;;15.20;14.40;;;17.50;99.90;;;;;;4912992;29;20490;-87
2022/11/09 13:07:18;;;;;;;14.37;13.60;;;17.70;99.90;;;;;;4913528;29;20834;-87
2022/11/09 13:09:54;;;;;;;15.67;14.97;;;17.70;99.90;;;;;;4917179;29;20473;-88
2022/11/09 13:12:33;;;;;;;16.30;15.50;;;17.80;99.90;;;;;;4901677;29;20458;-88
2022/11/09 13:15:21;;;;;;;14.47;13.93;;;17.80;99.90;;;;;;4901766;29;20444;-87
2022/11/09 13:18:05;;;;;;;15.60;14.90;;;17.80;99.90;;;;;;4902335;29;20609;-88
2022/11/09 13:20:43;;;;;;;15.47;14.77;;;17.70;99.90;;;;;;4900787;29;20940;-85
2022/11/09 13:23:31;;;;;;;16.50;15.80;;;17.50;99.90;;;;;;4903078;29;20443;-86
2022/11/09 13:25:58;;;;;;;15.83;15.23;;;17.50;99.90;;;;;;4901430;29;20486;-87
2022/11/09 13:29:08;;;;;;;17.00;16.20;;;17.40;99.90;;;;;;4902828;29;20455;-88
2022/11/09 13:32:05;;;;;;;16.77;15.87;;;17.30;99.90;;;;;;4835774;29;20452;-87
2022/11/09 13:34:44;;;;;;;15.17;14.47;;;17.20;99.90;;;;;;4835163;29;20482;-87
2022/11/09 13:37:48;;;;;;;14.33;13.83;;;17.20;99.90;;;;;;4888331;29;20485;-88
2022/11/09 13:40:40;;;;;;;13.87;13.37;;;17.20;99.90;;;;;;4905129;29;20451;-88
2022/11/09 13:43:26;;;;;;;14.97;14.37;;;17.10;99.90;;;;;;4908609;29;20549;-89
2022/11/09 13:45:56;;;;;;;15.30;14.60;;;17.00;99.90;;;;;;4916774;29;20525;-87
2022/11/09 13:48:35;;;;;;;14.03;13.47;;;17.00;99.90;;;;;;4912757;29;20468;-87
2022/11/09 13:51:05;;;;;;;15.47;14.87;;;16.90;99.90;;;;;;4910862;29;20537;-88
2022/11/09 14:11:26;;;;;;;14.80;14.30;;;16.60;99.90;;;;;;4813969;29;20424;-87
2022/11/09 14:14:14;;;;;;;15.30;14.70;;;16.60;99.90;;;;;;4795123;29;20462;-87
2022/11/09 14:16:49;;;;;;;14.90;14.40;;;16.70;99.90;;;;;;4915862;29;20928;-85
2022/11/09 14:19:26;;;;;;;15.40;14.70;;;16.50;99.90;;;;;;4915662;29;20572;-82
2022/11/09 14:21:53;;;;;;;14.93;14.40;;;16.40;99.90;;;;;;4915568;29;20553;-83
2022/11/09 14:24:22;;;;;;;15.70;15.10;;;16.30;99.90;;;;;;4915528;29;20816;-84
2022/11/09 14:27:12;;;;;;;16.20;15.50;;;16.20;99.90;;;;;;4915675;29;20490;-84
2022/11/09 14:29:51;;;;;;;16.97;16.17;;;16.30;99.90;;;;;;4915455;29;20501;-85
2022/11/09 14:32:30;;;;;;;16.67;15.83;;;16.30;99.90;;;;;;4915543;29;20469;-84
2022/11/09 14:35:25;;;;;;;16.40;15.57;;;16.20;99.90;;;;;;4915910;29;20482;-85
2022/11/09 14:37:54;;;;;;;16.87;16.17;;;16.30;99.90;;;;;;4876924;29;20471;-86
2022/11/09 14:40:24;;;;;;;16.93;16.20;;;16.30;99.90;;;;;;4880276;29;20466;-85
2022/11/09 14:42:55;;;;;;;16.70;16.10;;;16.40;99.90;;;;;;4879597;29;20511;-84
2022/11/09 14:45:23;;;;;;;17.77;16.97;;;16.40;99.90;;;;;;4877071;29;20842;-86
2022/11/09 14:47:53;;;;;;;17.60;16.90;;;16.50;99.90;;;;;;4877009;29;20491;-84
2022/11/09 14:50:22;;;;;;;17.73;16.73;;;16.70;99.90;;;;;;4877555;29;20458;-85
2022/11/09 14:52:51;;;;;;;16.47;15.77;;;16.60;99.90;;;;;;4877162;29;20984;-87
2022/11/09 14:55:20;;;;;;;16.93;16.23;;;16.50;99.90;;;;;;4877432;29;20455;-85
2022/11/09 14:57:48;;;;;;;16.63;15.93;;;16.40;99.90;;;;;;4877270;29;20456;-84
2022/11/09 15:00:26;;;;;;;19.10;18.17;;;16.30;99.90;;;;;;4877052;29;20456;-79
2022/11/09 15:02:53;;;;;;;20.47;19.40;;;16.10;99.90;;;;;;4877063;29;20479;-76
2022/11/09 15:05:32;;;;;;;22.17;20.67;;;16.00;99.90;;;;;;4876723;29;20452;-75
2022/11/09 15:08:00;;;;;;;22.80;21.70;;;15.80;99.90;;;;;;4877031;29;20491;-74
2022/11/09 15:10:28;;;;;;;25.47;24.17;;;15.60;99.90;;;;;;4877057;29;20452;-74
2022/11/09 15:13:00;;;;;;;25.60;24.00;;;15.50;99.90;;;;;;4876523;29;20459;-74
2022/11/09 15:15:30;;;;;;;26.03;24.73;;;15.40;99.90;;;;;;4886616;29;20441;-74
2022/11/09 15:17:57;;;;;;;28.40;26.90;;;15.30;99.90;;;;;;4885342;29;20449;-73
2022/11/09 15:20:28;;;;;;;27.77;26.17;;;15.20;99.90;;;;;;4886267;29;20465;-72
2022/11/09 15:22:56;;;;;;;27.73;26.00;;;15.10;99.90;;;;;;4886877;29;20573;-73
2022/11/09 15:25:29;;;;;;;26.90;25.50;;;15.00;99.90;;;;;;4885554;29;20441;-73
2022/11/09 15:28:03;;;;;;;28.13;26.60;;;15.00;99.90;;;;;;4884760;29;20486;-73
2022/11/09 15:30:34;;;;;;;26.50;25.23;;;15.00;99.90;;;;;;4884806;29;20448;-73
2022/11/09 15:33:01;;;;;;;31.87;30.07;;;14.90;99.90;;;;;;4885085;29;20448;-73
2022/11/09 15:35:27;;;;;;;32.20;30.33;;;14.90;99.90;;;;;;4885079;29;20451;-74
2022/11/09 15:37:55;;;;;;;39.13;36.70;;;14.80;99.90;;;;;;4886367;29;20855;-73
2022/11/09 15:40:23;;;;;;;38.70;36.23;;;14.80;99.90;;;;;;4884988;29;20449;-74
2022/11/09 15:42:50;;;;;;;32.87;30.93;;;14.80;99.90;;;;;;4884453;29;20460;-75
2022/11/09 15:45:19;;;;;;;33.23;31.20;;;14.80;99.90;;;;;;4884388;29;20452;-74
2022/11/09 15:47:52;;;;;;;28.10;26.67;;;14.80;99.90;;;;;;4884623;29;21012;-75
2022/11/09 15:50:22;;;;;;;27.53;25.90;;;14.80;99.90;;;;;;4884710;29;20462;-75
2022/11/09 15:52:49;;;;;;;27.60;26.20;;;14.70;99.90;;;;;;4884257;29;20619;-76
2022/11/09 15:55:18;;;;;;;27.23;25.83;;;14.80;99.90;;;;;;4884152;29;20449;-75
2022/11/09 15:57:45;;;;;;;26.27;24.87;;;14.80;99.90;;;;;;4884884;29;20443;-75
2022/11/09 16:00:13;;;;;;;26.80;25.30;;;14.80;99.90;;;;;;4888634;29;20459;-76
2022/11/09 16:02:40;;;;;;;25.00;23.90;;;14.80;99.90;;;;;;4894717;29;20825;-75
2022/11/09 16:05:09;;;;;;;24.67;23.47;;;14.80;99.90;;;;;;4894555;29;20784;-76
2022/11/09 16:07:35;;;;;;;25.77;24.47;;;14.80;99.90;;;;;;4894583;29;20491;-76
2022/11/09 16:10:02;;;;;;;25.30;23.90;;;14.80;99.90;;;;;;4894443;29;20455;-75
2022/11/09 16:12:29;;;;;;;25.53;24.13;;;14.80;99.90;;;;;;4894499;29;20459;-76
2022/11/09 16:14:56;;;;;;;25.20;24.00;;;14.80;99.90;;;;;;4894702;29;20473;-75
2022/11/09 16:17:23;;;;;;;25.50;24.30;;;14.80;99.90;;;;;;4894256;29;20444;-75
2022/11/09 16:19:51;;;;;;;26.70;25.40;;;14.80;99.90;;;;;;4894315;29;20458;-76
2022/11/09 16:22:19;;;;;;;25.87;24.43;;;14.90;99.90;;;;;;4894368;29;20462;-75
2022/11/09 16:24:47;;;;;;;25.20;24.07;;;14.90;99.90;;;;;;4893661;29;20458;-76
2022/11/09 16:27:13;;;;;;;26.10;24.90;;;14.80;99.90;;;;;;4894314;29;20491;-76
2022/11/09 16:29:40;;;;;;;27.17;25.43;;;14.80;99.90;;;;;;4894341;29;20455;-76
2022/11/09 16:32:07;;;;;;;27.27;25.97;;;14.80;99.90;;;;;;4893874;29;20462;-74
2022/11/09 16:34:34;;;;;;;27.87;26.37;;;14.90;99.90;;;;;;4894032;29;20454;-76
2022/11/09 16:37:35;;;;;;;28.00;26.60;;;14.80;99.90;;;;;;4894196;29;20454;-76
2022/11/09 16:40:06;;;;;;;27.63;26.27;;;14.90;99.90;;;;;;4894010;29;20461;-75
2022/11/09 16:42:34;;;;;;;28.10;26.70;;;14.90;99.90;;;;;;4893893;29;20458;-75
2022/11/09 16:45:07;;;;;;;28.73;27.23;;;14.80;99.90;;;;;;4894005;29;20849;-74
2022/11/09 16:47:39;;;;;;;29.30;27.57;;;14.80;99.90;;;;;;4893838;29;20523;-74
2022/11/09 16:50:07;;;;;;;28.80;27.27;;;14.70;99.90;;;;;;4893670;29;20546;-73
2022/11/09 16:52:35;;;;;;;28.23;26.73;;;14.60;99.90;;;;;;4893815;29;20804;-73
2022/11/09 16:55:01;;;;;;;28.47;27.07;;;14.50;99.90;;;;;;4893584;29;20803;-73
2022/11/09 16:57:28;;;;;;;27.80;26.40;;;14.50;99.90;;;;;;4894051;29;20456;-73
2022/11/09 16:59:55;;;;;;;30.43;28.63;;;14.50;99.90;;;;;;4894193;29;20451;-73
2022/11/09 17:02:24;;;;;;;30.23;28.23;;;14.50;99.90;;;;;;4893634;29;20459;-73
2022/11/09 17:04:51;;;;;;;28.77;27.07;;;14.40;99.90;;;;;;4893691;29;20455;-72
2022/11/09 17:07:18;;;;;;;28.57;26.80;;;14.40;99.90;;;;;;4893526;29;20507;-73
2022/11/09 17:09:46;;;;;;;29.40;27.60;;;14.30;99.90;;;;;;4893969;29;20470;-74
2022/11/09 17:12:14;;;;;;;28.90;27.17;;;14.30;99.90;;;;;;4894610;29;20455;-73
2022/11/09 17:14:40;;;;;;;30.13;28.17;;;14.30;99.90;;;;;;4894076;29;20459;-73
2022/11/09 17:17:07;;;;;;;30.07;28.20;;;14.30;99.90;;;;;;4894051;29;20466;-73
2022/11/09 17:19:35;;;;;;;29.93;28.03;;;14.30;99.90;;;;;;4893629;29;20458;-73
2022/11/09 17:22:02;;;;;;;31.53;28.83;;;14.20;99.90;;;;;;4894190;29;20466;-74
2022/11/09 17:24:30;;;;;;;30.30;28.33;;;14.20;99.90;;;;;;4893750;29;21021;-74
2022/11/09 17:26:58;;;;;;;30.93;29.33;;;14.20;99.90;;;;;;4894157;29;20491;-74
2022/11/09 17:29:26;;;;;;;31.20;29.37;;;14.20;99.90;;;;;;4894274;29;20459;-73
2022/11/09 17:31:53;;;;;;;31.80;30.13;;;14.10;99.90;;;;;;4893943;29;20486;-73
2022/11/09 17:34:19;;;;;;;30.93;29.40;;;14.10;99.90;;;;;;4893899;29;20452;-74
2022/11/09 17:36:46;;;;;;;32.17;30.50;;;14.10;99.90;;;;;;4897119;29;20853;-75
2022/11/09 17:39:13;;;;;;;31.53;29.83;;;14.10;99.90;;;;;;4897804;29;20459;-75
2022/11/09 17:41:40;;;;;;;32.43;30.77;;;14.10;99.90;;;;;;4897759;29;20451;-75
2022/11/09 17:44:08;;;;;;;31.10;29.50;;;14.10;99.90;;;;;;4897613;29;21083;-75
2022/11/09 17:46:35;;;;;;;33.67;31.67;;;14.10;99.90;;;;;;4897324;29;20454;-76
2022/11/09 17:49:01;;;;;;;32.63;30.93;;;14.10;99.90;;;;;;4897313;29;21002;-75
2022/11/09 17:51:28;;;;;;;31.60;29.90;;;14.10;99.90;;;;;;4897342;29;20463;-75
2022/11/09 17:53:56;;;;;;;33.40;31.60;;;14.20;99.90;;;;;;4897671;29;20464;-75
2022/11/09 17:56:22;;;;;;;32.30;30.70;;;14.30;99.90;;;;;;4897375;29;20462;-75
2022/11/09 17:58:49;;;;;;;30.90;29.17;;;14.20;99.90;;;;;;4896956;29;20451;-76
2022/11/09 18:01:20;;;;;;;32.07;30.33;;;14.20;99.90;;;;;;4894998;29;20457;-76
2022/11/09 18:03:47;;;;;;;31.97;30.27;;;14.10;99.90;;;;;;4897065;29;20471;-76
2022/11/09 18:06:16;;;;;;;32.37;30.47;;;14.10;99.90;;;;;;4897087;29;21006;-76
2022/11/09 18:08:44;;;;;;;31.17;29.67;;;14.00;99.90;;;;;;4897469;29;20497;-75
2022/11/09 18:11:11;;;;;;;31.93;30.33;;;14.00;99.90;;;;;;4897417;29;20455;-76